Time;durP1;ratioP1;P1;durP2;ratioP2;P2;SDS_P1;SDS_P2;PMS_P1;PMS_P2;Temp;Humidity;BMP_temperature;BMP_pressure;BME280_temperature;BME280_humidity;BME280_pressure;Samples;Min_cycle;Max_cycle;Signal;HPM_P1;HPM_P2
2022/11/10 00:02:14;;;;;;;;;;;11.70;99.90;;;;;;5037672;28;19953;-74
2022/11/10 00:04:39;;;;;;;;;;;11.60;99.90;;;;;;5046234;28;20316;-73
2022/11/10 00:07:04;;;;;;;;;;;11.60;99.90;;;;;;5047538;28;19915;-73
2022/11/10 00:09:30;;;;;;;;;;;11.80;99.90;;;;;;5042258;28;19921;-74
2022/11/10 00:11:55;;;;;;;;;;;11.80;99.90;;;;;;5047830;28;19920;-74
2022/11/10 00:17:10;;;;;;;;;;;12.00;99.90;;;;;;5012277;28;19909;-73
2022/11/10 00:19:35;;;;;;;;;;;12.00;99.90;;;;;;5043926;28;19913;-74
2022/11/10 00:22:01;;;;;;;;;;;12.10;99.90;;;;;;5043982;28;19925;-74
2022/11/10 00:24:27;;;;;;;;;;;12.10;99.90;;;;;;5041700;28;19917;-74
2022/11/10 00:26:53;;;;;;;;;;;12.10;99.90;;;;;;5042371;28;19917;-73
2022/11/10 00:29:19;;;;;;;;;;;12.20;99.90;;;;;;5039067;28;19912;-74
2022/11/10 00:31:50;;;;;;;;;;;12.10;99.90;;;;;;5041536;28;19913;-74
2022/11/10 00:34:16;;;;;;;;;;;12.20;99.90;;;;;;5041918;28;20360;-74
2022/11/10 00:36:42;;;;;;;;;;;12.20;99.90;;;;;;5039644;28;19920;-74
2022/11/10 00:39:08;;;;;;;;;;;12.30;99.90;;;;;;5046826;28;19924;-73
2022/11/10 00:41:33;;;;;;;;;;;12.20;99.90;;;;;;5041249;28;20372;-73
2022/11/10 00:43:59;;;;;;;;;;;12.30;99.90;;;;;;5043400;28;19921;-74
2022/11/10 00:46:25;;;;;;;;;;;12.30;99.90;;;;;;5048301;28;19920;-74
2022/11/10 00:48:50;;;;;;;;;;;12.30;99.90;;;;;;5042855;28;19920;-74
2022/11/10 00:51:19;;;;;;;;;;;12.20;99.90;;;;;;5043153;28;19920;-74
2022/11/10 00:53:44;;;;;;;;;;;12.30;99.90;;;;;;5046213;28;19924;-73
2022/11/10 00:56:10;;;;;;;;;;;12.30;99.90;;;;;;5040849;28;19913;-74
2022/11/10 00:58:36;;;;;;;;;;;12.30;99.90;;;;;;5034902;28;20001;-74
2022/11/10 01:01:02;;;;;;;;;;;12.40;99.90;;;;;;5026126;28;20371;-74
2022/11/10 01:03:27;;;;;;;;;;;12.40;99.90;;;;;;5039550;28;19917;-73
2022/11/10 01:05:53;;;;;;;;;;;12.40;99.90;;;;;;5043004;28;20355;-73
2022/11/10 01:08:18;;;;;;;;;;;12.40;99.90;;;;;;5046809;28;19913;-74
2022/11/10 01:10:44;;;;;;;;;;;12.40;99.90;;;;;;5045990;28;19916;-73
2022/11/10 01:13:09;;;;;;;;;;;12.30;99.90;;;;;;5041739;28;20516;-74
2022/11/10 01:15:37;;;;;;;;;;;12.30;99.90;;;;;;5046806;28;19959;-73
2022/11/10 01:18:03;;;;;;;;;;;12.40;99.90;;;;;;5043305;28;20011;-73
2022/11/10 01:20:28;;;;;;;;;;;12.40;99.90;;;;;;5048008;28;20003;-74
2022/11/10 01:22:54;;;;;;;;;;;12.40;99.90;;;;;;5048096;28;19917;-74
2022/11/10 01:25:19;;;;;;;;;;;12.50;99.90;;;;;;5053529;28;19935;-73
2022/11/10 01:27:45;;;;;;;;;;;12.50;99.90;;;;;;5049487;28;19908;-73
2022/11/10 01:30:10;;;;;;;;;;;12.40;99.90;;;;;;5056485;28;20313;-73
2022/11/10 01:32:35;;;;;;;;;;;12.40;99.90;;;;;;5047778;28;19909;-73
2022/11/10 01:35:01;;;;;;;;;;;12.40;99.90;;;;;;5044396;28;19955;-74
2022/11/10 01:37:26;;;;;;;;;;;12.40;99.90;;;;;;5049076;28;19917;-73
2022/11/10 01:39:52;;;;;;;;;;;12.40;99.90;;;;;;5046608;28;20517;-74
2022/11/10 01:42:28;;;;;;;;;;;12.40;99.90;;;;;;5045797;28;20019;-73
2022/11/10 01:45:13;;;;;;;;;;;12.40;99.90;;;;;;5048514;28;19928;-74
2022/11/10 01:47:38;;;;;;;;;;;12.40;99.90;;;;;;5030431;28;20326;-73
2022/11/10 01:50:04;;;;;;;;;;;12.40;99.90;;;;;;5045210;28;19913;-73
2022/11/10 01:52:32;;;;;;;;;;;12.40;99.90;;;;;;5046122;28;20244;-74
2022/11/10 01:54:57;;;;;;;;;;;12.50;99.90;;;;;;5047270;28;20368;-73
2022/11/10 01:57:23;;;;;;;;;;;12.40;99.90;;;;;;5048158;28;19920;-74
2022/11/10 01:59:48;;;;;;;;;;;12.40;99.90;;;;;;5045448;28;19955;-73
2022/11/10 02:02:20;;;;;;;;;;;12.40;99.90;;;;;;5045174;28;19997;-73
2022/11/10 02:04:46;;;;;;;;;;;12.40;99.90;;;;;;5053817;28;19913;-73
2022/11/10 02:07:11;;;;;;;;;;;12.30;99.90;;;;;;5045508;28;20000;-74
2022/11/10 02:09:37;;;;;;;;;;;12.30;99.90;;;;;;5050402;28;20417;-74
2022/11/10 02:12:03;;;;;;;;;;;12.30;99.90;;;;;;5051050;28;20018;-74
2022/11/10 02:14:28;;;;;;;;;;;12.30;99.90;;;;;;5053767;28;19908;-74
2022/11/10 02:16:53;;;;;;;;;;;12.30;99.90;;;;;;5045834;28;20008;-74
2022/11/10 02:19:20;;;;;;;;;;;12.20;99.90;;;;;;5050663;28;19982;-73
2022/11/10 02:21:46;;;;;;;;;;;12.20;99.90;;;;;;5047307;28;19928;-74
2022/11/10 02:24:11;;;;;;;;;;;12.20;99.90;;;;;;5050737;28;19925;-73
2022/11/10 02:26:41;;;;;;;;;;;12.30;99.90;;;;;;5047667;28;19917;-73
2022/11/10 02:29:06;;;;;;;;;;;12.20;99.90;;;;;;5049248;28;19969;-73
2022/11/10 02:31:32;;;;;;;;;;;12.20;99.90;;;;;;5041841;28;20003;-73
2022/11/10 02:33:57;;;;;;;;;;;12.20;99.90;;;;;;5051808;28;19917;-73
2022/11/10 02:36:22;;;;;;;;;;;12.20;99.90;;;;;;5045714;28;19955;-74
2022/11/10 02:38:48;;;;;;;;;;;12.30;99.90;;;;;;5057529;28;19956;-73
2022/11/10 02:41:13;;;;;;;;;;;12.30;99.90;;;;;;5045346;28;20011;-74
2022/11/10 02:43:39;;;;;;;;;;;12.30;99.90;;;;;;5043986;28;20355;-73
2022/11/10 02:46:04;;;;;;;;;;;12.20;99.90;;;;;;5046552;28;19917;-74
2022/11/10 02:48:35;;;;;;;;;;;12.20;99.90;;;;;;5043266;28;19913;-73
2022/11/10 02:51:01;;;;;;;;;;;12.10;99.90;;;;;;5048646;28;19920;-74
2022/11/10 02:53:26;;;;;;;;;;;12.20;99.90;;;;;;5049247;28;19917;-75
2022/11/10 02:55:51;;;;;;;;;;;12.20;99.90;;;;;;5051812;28;19917;-73
2022/11/10 02:58:17;;;;;;;;;;;12.20;99.90;;;;;;5047265;28;19928;-74
2022/11/10 03:00:42;;;;;;;;;;;12.10;99.90;;;;;;5047397;28;19920;-73
2022/11/10 03:03:08;;;;;;;;;;;12.10;99.90;;;;;;5046640;28;19921;-75
2022/11/10 03:05:33;;;;;;;;;;;12.10;99.90;;;;;;5045980;28;19927;-73
2022/11/10 03:08:02;;;;;;;;;;;12.20;99.90;;;;;;5047179;28;19940;-73
2022/11/10 03:10:28;;;;;;;;;;;12.20;99.90;;;;;;5042800;28;19928;-74
2022/11/10 03:12:57;;;;;;;;;;;12.10;99.90;;;;;;5042168;28;20018;-74
2022/11/10 03:15:23;;;;;;;;;;;12.20;99.90;;;;;;5048445;28;19923;-74
2022/11/10 03:17:58;;;;;;;;;;;12.20;99.90;;;;;;5046483;28;19996;-73
2022/11/10 03:20:23;;;;;;;;;;;12.20;99.90;;;;;;5040623;28;19928;-73
2022/11/10 03:22:48;;;;;;;;;;;12.20;99.90;;;;;;5045835;28;19920;-73
2022/11/10 03:25:14;;;;;;;;;;;12.10;99.90;;;;;;5047500;28;20346;-74
2022/11/10 03:27:39;;;;;;;;;;;12.10;99.90;;;;;;5051468;28;20392;-74
2022/11/10 03:30:05;;;;;;;;;;;12.10;99.90;;;;;;5039520;28;19917;-74
2022/11/10 03:32:31;;;;;;;;;;;12.00;99.90;;;;;;5048549;28;19951;-74
2022/11/10 03:34:56;;;;;;;;;;;12.00;99.90;;;;;;5060577;28;19915;-74
2022/11/10 03:37:22;;;;;;;;;;;12.00;99.90;;;;;;5048209;28;19913;-74
2022/11/10 03:39:47;;;;;;;;;;;12.00;99.90;;;;;;5045966;28;19971;-74
2022/11/10 03:42:12;;;;;;;;;;;12.00;99.90;;;;;;5040276;28;19917;-74
2022/11/10 03:44:38;;;;;;;;;;;12.00;99.90;;;;;;5053874;28;20367;-75
2022/11/10 03:47:03;;;;;;;;;;;11.90;99.90;;;;;;5050333;28;20367;-74
2022/11/10 03:49:29;;;;;;;;;;;11.90;99.90;;;;;;5052110;28;19964;-74
2022/11/10 03:51:55;;;;;;;;;;;11.80;99.90;;;;;;5040816;28;19913;-74
2022/11/10 03:54:20;;;;;;;;;;;11.80;99.90;;;;;;5050547;28;19917;-73
2022/11/10 03:56:45;;;;;;;;;;;11.70;99.90;;;;;;5049384;28;19916;-74
2022/11/10 03:59:11;;;;;;;;;;;11.70;99.90;;;;;;5045716;28;19925;-74
2022/11/10 04:01:36;;;;;;;;;;;11.60;99.90;;;;;;5043123;28;19917;-73
2022/11/10 04:04:02;;;;;;;;;;;11.40;99.90;;;;;;5043994;28;20477;-73
2022/11/10 04:09:11;;;;;;;;;;;11.30;99.90;;;;;;5045322;28;19970;-73
2022/11/10 04:17:04;;;;;;;;;;;11.60;99.90;;;;;;5055231;28;19974;-74
2022/11/10 04:19:30;;;;;;;;;;;11.40;99.90;;;;;;5047253;28;19905;-74
2022/11/10 04:21:55;;;;;;;;;;;11.30;99.90;;;;;;5051074;28;19928;-74
2022/11/10 04:24:21;;;;;;;;;;;11.10;99.90;;;;;;5048270;28;19917;-73
2022/11/10 04:26:47;;;;;;;;;;;11.10;99.90;;;;;;5050191;28;19913;-73
2022/11/10 04:29:13;;;;;;;;;;;11.00;99.90;;;;;;5050953;28;20619;-74
2022/11/10 04:31:39;;;;;;;;;;;10.90;99.90;;;;;;5047216;28;19917;-74
2022/11/10 04:34:06;;;;;;;;;;;10.90;99.90;;;;;;5048108;28;19952;-74
2022/11/10 04:36:32;;;;;;;;;;;10.90;99.90;;;;;;5046587;28;19919;-74
2022/11/10 04:38:57;;;;;;;;;;;10.90;99.90;;;;;;5051060;28;20264;-74
2022/11/10 04:41:24;;;;;;;;;;;10.80;99.90;;;;;;5042319;28;19967;-73
2022/11/10 04:43:49;;;;;;;;;;;10.70;99.90;;;;;;5044672;28;19924;-73
2022/11/10 04:46:31;;;;;;;;;;;10.70;99.90;;;;;;5050938;28;19920;-73
2022/11/10 04:48:57;;;;;;;;;;;10.70;99.90;;;;;;5061119;28;19913;-74
2022/11/10 04:51:25;;;;;;;;;;;10.60;99.90;;;;;;5050161;28;19924;-74
2022/11/10 04:53:50;;;;;;;;;;;10.70;99.90;;;;;;5050892;28;20592;-73
2022/11/10 04:56:17;;;;;;;;;;;10.60;99.90;;;;;;5047110;28;19996;-72
2022/11/10 04:58:42;;;;;;;;;;;10.60;99.90;;;;;;5044223;28;20346;-74
2022/11/10 05:01:09;;;;;;;;;;;10.60;99.90;;;;;;5046710;28;19912;-73
2022/11/10 05:03:35;;;;;;;;;;;10.50;99.90;;;;;;5046582;28;19916;-73
2022/11/10 05:06:00;;;;;;;;;;;10.50;99.90;;;;;;5050188;28;19975;-73
2022/11/10 05:08:26;;;;;;;;;;;10.30;99.90;;;;;;5046644;28;20519;-75
2022/11/10 05:10:51;;;;;;;;;;;10.20;99.90;;;;;;5048168;28;20168;-75
2022/11/10 05:13:17;;;;;;;;;;;10.20;99.90;;;;;;5048342;28;19916;-75
2022/11/10 05:15:42;;;;;;;;;;;10.20;99.90;;;;;;5050820;28;20315;-75
2022/11/10 05:18:07;;;;;;;;;;;10.20;99.90;;;;;;5048549;28;20375;-77
2022/11/10 05:20:33;;;;;;;;;;;10.10;99.90;;;;;;5047343;28;21025;-75
2022/11/10 05:25:45;;;;;;;;;;;10.20;99.90;;;;;;5044883;28;19920;-76
2022/11/10 05:28:11;;;;;;;;;;;10.20;99.90;;;;;;5045906;28;19909;-76
2022/11/10 05:30:37;;;;;;;;;;;10.00;99.90;;;;;;5044586;28;20382;-75
2022/11/10 05:33:03;;;;;;;;;;;9.90;99.90;;;;;;5048844;28;19909;-75
2022/11/10 05:35:28;;;;;;;;;;;9.90;99.90;;;;;;5050512;28;19923;-76
2022/11/10 05:37:54;;;;;;;;;;;9.90;99.90;;;;;;5047242;28;20276;-76
2022/11/10 05:40:19;;;;;;;;;;;9.80;99.90;;;;;;5049758;28;19920;-76
2022/11/10 05:42:51;;;;;;;;;;;9.90;99.90;;;;;;5046354;28;19916;-74
2022/11/10 05:45:17;;;;;;;;;;;9.90;99.90;;;;;;5031117;28;19917;-76
2022/11/10 05:47:43;;;;;;;;;;;9.80;99.90;;;;;;5037306;28;19909;-76
2022/11/10 05:50:09;;;;;;;;;;;9.80;99.90;;;;;;5038487;28;20265;-76
2022/11/10 05:52:34;;;;;;;;;;;9.90;99.90;;;;;;5036195;28;20456;-76
2022/11/10 05:55:00;;;;;;;;;;;9.90;99.90;;;;;;5039785;28;20430;-75
2022/11/10 05:57:25;;;;;;;;;;;9.80;99.90;;;;;;5038394;28;19976;-76
2022/11/10 05:59:51;;;;;;;;;;;9.90;99.90;;;;;;5036433;28;19917;-76
2022/11/10 06:02:16;;;;;;;;;;;9.90;99.90;;;;;;5037871;28;19912;-75
2022/11/10 06:04:41;;;;;;;;;;;9.80;99.90;;;;;;5039196;28;19919;-76
2022/11/10 06:07:07;;;;;;;;;;;9.80;99.90;;;;;;5038473;28;21704;-76
2022/11/10 06:09:33;;;;;;;;;;;9.80;99.90;;;;;;5037918;28;19916;-76
2022/11/10 06:11:58;;;;;;;;;;;9.80;99.90;;;;;;5039227;28;20392;-77
2022/11/10 06:14:23;;;;;;;;;;;9.80;99.90;;;;;;5038320;28;20792;-73
2022/11/10 06:16:49;;;;;;;;;;;9.70;99.90;;;;;;5039970;28;19913;-76
2022/11/10 06:19:14;;;;;;;;;;;9.60;99.90;;;;;;5036516;28;19912;-74
2022/11/10 06:21:40;;;;;;;;;;;9.60;99.90;;;;;;5038654;28;19929;-75
2022/11/10 06:24:05;;;;;;;;;;;9.60;99.90;;;;;;5038179;28;19917;-75
2022/11/10 06:26:30;;;;;;;;;;;9.50;99.90;;;;;;5039813;28;20362;-75
2022/11/10 06:28:56;;;;;;;;;;;9.40;99.90;;;;;;5039203;28;19920;-74
2022/11/10 06:31:22;;;;;;;;;;;9.50;99.90;;;;;;5038886;28;19917;-77
2022/11/10 06:33:48;;;;;;;;;;;9.50;99.90;;;;;;5037407;28;19928;-75
2022/11/10 06:36:13;;;;;;;;;;;9.50;99.90;;;;;;5038240;28;19920;-75
2022/11/10 06:38:39;;;;;;;;;;;9.50;99.90;;;;;;5037747;28;19921;-75
2022/11/10 06:41:04;;;;;;;;;;;9.60;99.90;;;;;;5034742;28;20683;-75
2022/11/10 06:43:30;;;;;;;;;;;9.60;99.90;;;;;;5037122;28;19925;-75
2022/11/10 06:45:55;;;;;;;;;;;9.60;99.90;;;;;;5036970;28;19924;-75
2022/11/10 06:48:21;;;;;;;;;;;9.60;99.90;;;;;;5033079;28;19921;-74
2022/11/10 06:50:46;;;;;;;;;;;9.60;99.90;;;;;;5035783;28;20025;-75
2022/11/10 06:53:12;;;;;;;;;;;9.60;99.90;;;;;;5038564;28;19912;-75
2022/11/10 06:55:38;;;;;;;;;;;9.60;99.90;;;;;;5036407;28;20032;-74
2022/11/10 06:58:03;;;;;;;;;;;9.70;99.90;;;;;;5037456;28;19990;-74
2022/11/10 07:00:29;;;;;;;;;;;9.70;99.90;;;;;;5037737;28;19913;-74
2022/11/10 07:03:02;;;;;;;;;;;9.80;99.90;;;;;;5036827;28;19917;-75
2022/11/10 07:05:28;;;;;;;;;;;9.90;99.90;;;;;;5038624;28;20452;-76
2022/11/10 07:07:54;;;;;;;;;;;10.00;99.90;;;;;;5036345;28;19917;-76
2022/11/10 07:10:19;;;;;;;;;;;10.10;99.90;;;;;;5032700;28;19938;-76
2022/11/10 07:12:45;;;;;;;;;;;10.30;99.90;;;;;;5034297;28;20023;-76
2022/11/10 07:15:10;;;;;;;;;;;10.50;99.90;;;;;;5037168;28;19909;-75
2022/11/10 07:17:39;;;;;;;;;;;10.50;99.90;;;;;;5046161;28;19917;-74
2022/11/10 07:20:05;;;;;;;;;;;10.40;99.90;;;;;;5041450;28;19927;-75
2022/11/10 07:22:31;;;;;;;;;;;10.40;99.90;;;;;;5046085;28;20529;-74
2022/11/10 07:24:56;;;;;;;;;;;10.40;99.90;;;;;;5049430;28;19924;-74
2022/11/10 07:27:22;;;;;;;;;;;10.40;99.90;;;;;;5046186;28;19916;-73
2022/11/10 07:29:47;;;;;;;;;;;10.60;99.90;;;;;;5045292;28;19920;-76
2022/11/10 07:32:13;;;;;;;;;;;10.70;99.90;;;;;;5035553;28;19913;-75
2022/11/10 07:34:39;;;;;;;;;;;10.80;99.90;;;;;;5039818;28;19960;-76
2022/11/10 07:37:04;;;;;;;;;;;10.70;99.90;;;;;;5046285;28;19962;-75
2022/11/10 07:39:30;;;;;;;;;;;10.70;99.90;;;;;;5042838;28;20351;-75
2022/11/10 07:41:56;;;;;;;;;;;10.70;99.90;;;;;;5034440;28;20431;-76
2022/11/10 07:44:22;;;;;;;;;;;10.60;99.90;;;;;;5043528;28;19928;-76
2022/11/10 07:46:47;;;;;;;;;;;10.60;99.90;;;;;;5042651;28;19909;-78
2022/11/10 07:49:13;;;;;;;;;;;10.60;99.90;;;;;;5050024;28;19917;-76
2022/11/10 07:51:38;;;;;;;;;;;10.60;99.90;;;;;;5040016;28;19921;-76
2022/11/10 07:54:04;;;;;;;;;;;10.60;99.90;;;;;;5041974;28;20052;-75
2022/11/10 07:56:29;;;;;;;;;;;10.60;99.90;;;;;;5046531;28;19917;-74
2022/11/10 07:58:55;;;;;;;;;;;10.60;99.90;;;;;;5045141;28;19917;-79
2022/11/10 08:01:20;;;;;;;;;;;10.80;99.90;;;;;;5044556;28;20330;-76
2022/11/10 08:03:46;;;;;;;;;;;10.90;99.90;;;;;;5040707;28;19917;-74
2022/11/10 08:06:11;;;;;;;;;;;10.80;99.90;;;;;;5042184;28;19913;-75
2022/11/10 08:08:37;;;;;;;;;;;10.80;99.90;;;;;;5046218;28;20007;-73
2022/11/10 08:11:02;;;;;;;;;;;10.80;99.90;;;;;;5032820;28;19909;-75
2022/11/10 08:13:27;;;;;;;;;;;10.80;99.90;;;;;;5040215;28;20141;-75
2022/11/10 08:15:53;;;;;;;;;;;10.90;99.90;;;;;;5046491;28;19919;-76
2022/11/10 08:18:20;;;;;;;;;;;11.00;99.90;;;;;;5040438;28;20364;-75
2022/11/10 08:21:05;;;;;;;;;;;11.10;99.90;;;;;;5030086;28;19935;-75
2022/11/10 08:23:31;;;;;;;;;;;11.20;99.90;;;;;;5043612;28;19917;-75
2022/11/10 08:25:57;;;;;;;;;;;11.30;99.90;;;;;;5039880;28;19921;-77
2022/11/10 08:28:22;;;;;;;;;;;11.30;99.90;;;;;;5043852;28;19927;-75
2022/11/10 08:30:49;;;;;;;;;;;11.40;99.90;;;;;;5047260;28;19913;-75
2022/11/10 08:33:16;;;;;;;;;;;11.50;99.90;;;;;;5040648;28;20248;-75
2022/11/10 08:35:42;;;;;;;;;;;11.60;99.90;;;;;;5043262;28;19917;-75
2022/11/10 08:38:09;;;;;;;;;;;11.70;99.90;;;;;;5040087;28;19932;-75
2022/11/10 08:40:34;;;;;;;;;;;11.80;99.90;;;;;;5041817;28;20415;-73
2022/11/10 08:43:00;;;;;;;;;;;11.80;99.90;;;;;;5042345;28;19917;-74
2022/11/10 08:45:26;;;;;;;;;;;11.90;99.90;;;;;;5047295;28;20233;-75
2022/11/10 08:48:02;;;;;;;;;;;12.00;99.90;;;;;;5046091;28;19913;-74
2022/11/10 08:50:28;;;;;;;;;;;12.10;99.90;;;;;;5039748;28;20342;-74
2022/11/10 08:52:54;;;;;;;;;;;12.30;99.90;;;;;;5044559;28;20012;-74
2022/11/10 08:55:20;;;;;;;;;;;12.30;99.90;;;;;;5045448;28;19995;-74
2022/11/10 08:57:46;;;;;;;;;;;12.40;99.90;;;;;;5041290;28;19967;-74
2022/11/10 09:00:12;;;;;;;;;;;12.50;99.90;;;;;;5049702;28;19912;-74
2022/11/10 09:02:37;;;;;;;;;;;12.60;99.90;;;;;;5045429;28;19913;-74
2022/11/10 09:05:03;;;;;;;;;;;12.60;99.90;;;;;;5035206;28;19923;-75
2022/11/10 09:07:29;;;;;;;;;;;12.70;99.90;;;;;;5045962;28;19913;-73
2022/11/10 09:09:55;;;;;;;;;;;12.80;99.90;;;;;;5045090;28;20017;-74
2022/11/10 09:12:20;;;;;;;;;;;12.80;99.90;;;;;;5041709;28;19909;-74
2022/11/10 09:14:46;;;;;;;;;;;12.80;99.90;;;;;;5047894;28;19916;-77
2022/11/10 09:17:12;;;;;;;;;;;12.90;99.90;;;;;;5049404;28;20393;-78
2022/11/10 09:19:37;;;;;;;;;;;13.30;99.90;;;;;;5038957;28;19924;-77
2022/11/10 09:22:02;;;;;;;;;;;13.40;99.90;;;;;;5052369;28;19921;-76
2022/11/10 09:24:28;;;;;;;;;;;13.40;99.90;;;;;;5049040;28;19923;-76
2022/11/10 09:26:53;;;;;;;;;;;13.30;99.90;;;;;;5049866;28;19909;-75
2022/11/10 09:29:20;;;;;;;;;;;13.00;99.90;;;;;;5047596;28;19955;-76
2022/11/10 09:31:45;;;;;;;;;;;12.80;99.90;;;;;;5044796;28;19913;-78
2022/11/10 09:34:10;;;;;;;;;;;12.70;99.90;;;;;;5047284;28;19912;-77
2022/11/10 09:36:36;;;;;;;;;;;12.90;99.90;;;;;;5047975;28;19916;-75
2022/11/10 09:39:01;;;;;;;;;;;12.80;99.90;;;;;;5040849;28;19917;-77
2022/11/10 09:41:28;;;;;;;;;;;13.00;99.90;;;;;;5034396;28;20004;-78
2022/11/10 09:44:00;;;;;;;;;;;13.20;99.90;;;;;;5037665;28;19927;-76
2022/11/10 09:46:29;;;;;;;;;;;13.10;99.90;;;;;;5042102;28;20394;-76
2022/11/10 09:48:59;;;;;;;;;;;13.10;99.90;;;;;;5053456;28;20366;-76
2022/11/10 09:51:28;;;;;;;;;;;13.00;99.90;;;;;;5038370;28;19913;-76
2022/11/10 09:53:57;;;;;;;;;;;13.10;99.90;;;;;;5031638;28;19920;-76
2022/11/10 09:56:36;;;;;;;;;;;13.20;99.90;;;;;;5036407;28;19921;-78
2022/11/10 09:59:20;;;;;;;;;;;13.50;99.90;;;;;;5030494;28;19909;-76
2022/11/10 10:01:58;;;;;;;;;;;13.60;99.90;;;;;;5047942;28;19909;-77
2022/11/10 10:04:48;;;;;;;;;;;13.80;99.90;;;;;;5049454;28;20003;-76
2022/11/10 10:07:17;;;;;;;;;;;13.90;99.90;;;;;;5048850;28;19912;-78
2022/11/10 10:10:01;;;;;;;;;;;13.80;99.90;;;;;;5042370;28;19916;-78
2022/11/10 10:12:38;;;;;;;;;;;13.80;99.90;;;;;;5035823;28;20003;-77
2022/11/10 10:15:06;;;;;;;;;;;13.70;99.90;;;;;;5039808;28;19913;-76
2022/11/10 10:17:41;;;;;;;;;;;13.90;99.90;;;;;;5046880;28;20442;-78
2022/11/10 10:20:17;;;;;;;;;;;13.90;99.90;;;;;;5032357;28;19920;-77
2022/11/10 10:22:54;;;;;;;;;;;13.70;99.90;;;;;;5045088;28;19952;-77
2022/11/10 10:25:22;;;;;;;;;;;13.50;99.90;;;;;;5046320;28;20370;-76
2022/11/10 10:27:48;;;;;;;;;;;13.40;99.90;;;;;;5049327;28;19905;-75
2022/11/10 10:30:17;;;;;;;;;;;14.00;99.90;;;;;;5044280;28;20054;-78
2022/11/10 10:32:42;;;;;;;;;;;14.10;99.90;;;;;;5041213;28;19905;-77
2022/11/10 10:35:14;;;;;;;;;;;14.10;99.90;;;;;;5035817;28;20295;-77
2022/11/10 10:37:43;;;;;;;;;;;13.90;99.90;;;;;;5048067;28;19913;-77
2022/11/10 10:40:13;;;;;;;;;;;14.20;99.90;;;;;;5030334;28;19917;-77
2022/11/10 10:42:39;;;;;;;;;;;15.00;99.90;;;;;;5037617;28;19913;-76
2022/11/10 10:45:15;;;;;;;;;;;15.90;99.90;;;;;;5039142;28;20422;-77
2022/11/10 10:47:40;;;;;;;;;;;16.00;99.90;;;;;;5030118;28;19905;-76
2022/11/10 10:50:25;;;;;;;;;;;17.20;96.90;;;;;;5034440;28;19921;-75
2022/11/10 10:53:09;;;;;;;;;;;16.50;98.00;;;;;;5048406;28;19909;-76
2022/11/10 10:55:35;;;;;;;;;;;15.90;98.70;;;;;;5044949;28;20039;-77
2022/11/10 10:58:02;;;;;;;;;;;15.00;99.90;;;;;;5046938;28;19923;-76
2022/11/10 11:00:28;;;;;;;;;;;14.40;99.90;;;;;;5040870;28;20399;-77
2022/11/10 11:03:00;;;;;;;;;;;14.20;99.90;;;;;;5048055;28;19917;-75
2022/11/10 11:05:26;;;;;;;;;;;14.10;99.90;;;;;;5048106;28;19916;-76
2022/11/10 11:07:55;;;;;;;;;;;14.60;99.90;;;;;;5048190;28;19909;-76
2022/11/10 11:10:25;;;;;;;;;;;15.50;99.90;;;;;;5044388;28;20441;-77
2022/11/10 11:12:50;;;;;;;;;;;15.40;99.90;;;;;;5047692;28;19909;-73
2022/11/10 11:15:16;;;;;;;;;;;16.10;99.30;;;;;;5047780;28;19966;-74
2022/11/10 11:17:52;;;;;;;;;;;17.20;96.40;;;;;;5047723;28;19913;-76
2022/11/10 11:20:17;;;;;;;;;;;18.10;93.60;;;;;;5043799;28;19999;-76
2022/11/10 11:22:50;;;;;;;;;;;18.30;90.50;;;;;;5047190;28;20024;-77
2022/11/10 11:25:26;;;;;;;;;;;16.40;94.80;;;;;;5047646;28;19909;-76
2022/11/10 11:28:10;;;;;;;;;;;17.70;94.50;;;;;;5047414;28;20366;-76
2022/11/10 11:31:05;;;;;;;;;;;20.30;82.90;;;;;;5045265;28;20310;-76
2022/11/10 11:33:43;;;;;;;;;;;19.00;85.20;;;;;;5047712;28;19908;-75
2022/11/10 11:36:15;;;;;;;;;;;19.50;82.40;;;;;;5045434;28;20007;-76
2022/11/10 11:38:57;;;;;;;;;;;17.30;90.80;;;;;;5047448;28;19913;-76
2022/11/10 11:41:30;;;;;;;;;;;16.50;93.00;;;;;;5047641;28;19909;-75
2022/11/10 11:44:04;;;;;;;;;;;16.40;94.00;;;;;;5047568;28;19916;-77
2022/11/10 11:46:43;;;;;;;;;;;15.50;96.60;;;;;;5045713;28;19909;-77
2022/11/10 11:49:14;;;;;;;;;;;15.20;98.20;;;;;;5045818;28;19976;-77
2022/11/10 11:51:51;;;;;;;;;;;15.30;98.60;;;;;;5045239;28;20390;-76
2022/11/10 11:54:35;;;;;;;;;;;15.90;97.50;;;;;;5047386;28;20101;-77
2022/11/10 11:57:08;;;;;;;;;;;15.80;96.90;;;;;;5045096;28;20398;-76
2022/11/10 11:59:41;;;;;;;;;;;18.20;93.20;;;;;;5047239;28;19988;-77
2022/11/10 12:02:26;;;;;;;;;;;20.10;81.70;;;;;;5047503;28;19912;-76
2022/11/10 12:04:58;;;;;;;;;;;18.30;88.40;;;;;;5047410;28;19913;-76
2022/11/10 12:07:26;;;;;;;;;;;16.70;92.10;;;;;;5042880;28;19913;-77
2022/11/10 12:10:12;;;;;;;;;;;16.20;93.90;;;;;;5042427;28;19923;-76
2022/11/10 12:12:46;;;;;;;;;;;15.40;96.20;;;;;;5046374;28;19954;-75
2022/11/10 12:15:23;;;;;;;;;;;15.10;97.80;;;;;;5047525;28;19924;-76
2022/11/10 12:18:07;;;;;;;;;;;14.80;98.80;;;;;;5047469;28;19920;-75
2022/11/10 12:20:41;;;;;;;;;;;15.00;99.40;;;;;;5046184;28;20007;-77
2022/11/10 12:23:14;;;;;;;;;;;14.70;99.90;;;;;;5047177;28;19947;-77
2022/11/10 12:25:46;;;;;;;;;;;14.70;99.90;;;;;;5047006;28;19919;-76
2022/11/10 12:28:17;;;;;;;;;;;14.70;99.90;;;;;;5046909;28;20000;-76
2022/11/10 12:30:43;;;;;;;;;;;14.80;99.90;;;;;;5042520;28;20350;-76
2022/11/10 12:33:32;;;;;;;;;;;15.10;99.90;;;;;;5043061;28;19924;-76
2022/11/10 12:35:59;;;;;;;;;;;15.10;99.70;;;;;;5050792;28;19962;-77
2022/11/10 12:38:43;;;;;;;;;;;15.10;99.90;;;;;;5050574;28;19947;-77
2022/11/10 12:41:11;;;;;;;;;;;15.20;99.70;;;;;;5048920;28;19913;-77
2022/11/10 12:43:37;;;;;;;;;;;17.60;94.70;;;;;;5050477;28;20398;-77
2022/11/10 12:46:04;;;;;;;;;;;17.90;91.60;;;;;;5048762;28;19914;-77
2022/11/10 12:48:37;;;;;;;;;;;16.20;94.80;;;;;;5050320;28;20307;-77
2022/11/10 12:51:08;;;;;;;;;;;15.50;97.50;;;;;;5048676;28;19967;-76
2022/11/10 12:53:36;;;;;;;;;;;15.50;97.70;;;;;;5046074;28;19917;-77
2022/11/10 12:56:06;;;;;;;;;;;17.20;93.70;;;;;;5049220;28;19909;-76
2022/11/10 12:58:31;;;;;;;;;;;18.40;91.10;;;;;;5050340;28;20541;-77
2022/11/10 13:00:59;;;;;;;;;;;18.20;88.60;;;;;;5050699;28;19913;-77
2022/11/10 13:03:30;;;;;;;;;;;17.60;90.10;;;;;;5050206;28;19971;-75
2022/11/10 13:06:18;;;;;;;;;;;17.40;89.80;;;;;;5046770;28;20280;-74
2022/11/10 13:08:45;;;;;;;;;;;16.80;91.10;;;;;;5036549;28;20426;-77
2022/11/10 13:11:11;;;;;;;;;;;16.10;92.70;;;;;;5050394;28;19944;-77
2022/11/10 13:13:44;;;;;;;;;;;15.80;94.20;;;;;;5049822;28;19968;-76
2022/11/10 13:16:10;;;;;;;;;;;16.30;93.10;;;;;;5047544;28;20379;-76
2022/11/10 13:18:35;;;;;;;;;;;16.00;93.80;;;;;;5050250;28;19916;-76
2022/11/10 13:21:00;;;;;;;;;;;16.10;93.70;;;;;;5049761;28;19921;-77
2022/11/10 13:23:27;;;;;;;;;;;16.00;93.70;;;;;;5049721;28;19917;-77
2022/11/10 13:25:53;;;;;;;;;;;15.90;94.30;;;;;;5046665;28;19917;-77
2022/11/10 13:28:37;;;;;;;;;;;15.70;94.50;;;;;;5048538;28;20315;-78
2022/11/10 13:31:21;;;;;;;;;;;16.00;94.40;;;;;;5049765;28;19920;-77
2022/11/10 13:34:01;;;;;;;;;;;16.00;94.00;;;;;;5049701;28;20011;-76
2022/11/10 13:36:40;;;;;;;;;;;15.80;94.00;;;;;;5047284;28;19939;-77
2022/11/10 13:39:18;;;;;;;;;;;15.90;94.10;;;;;;5049945;28;19912;-76
2022/11/10 13:41:47;;;;;;;;;;;15.70;94.60;;;;;;5049452;28;19917;-77
2022/11/10 13:44:23;;;;;;;;;;;15.80;94.70;;;;;;5048668;28;19959;-77
2022/11/10 13:46:59;;;;;;;;;;;15.70;95.10;;;;;;5046100;28;19919;-76
2022/11/10 13:49:36;;;;;;;;;;;15.40;95.50;;;;;;5046400;28;19935;-77
2022/11/10 13:52:07;;;;;;;;;;;15.30;96.00;;;;;;5049531;28;19955;-77
2022/11/10 13:54:32;;;;;;;;;;;15.30;96.20;;;;;;5049386;28;19952;-77
2022/11/10 13:57:11;;;;;;;;;;;15.40;96.10;;;;;;5049318;28;20375;-76
2022/11/10 13:59:48;;;;;;;;;;;15.40;96.50;;;;;;5047334;28;20576;-77
2022/11/10 14:02:31;;;;;;;;;;;15.30;96.80;;;;;;5049603;28;19909;-77
2022/11/10 14:04:57;;;;;;;;;;;15.50;96.80;;;;;;5039041;28;19917;-76
2022/11/10 14:07:23;;;;;;;;;;;15.70;95.90;;;;;;5041906;28;19936;-75
2022/11/10 14:09:50;;;;;;;;;;;16.00;95.60;;;;;;5047222;28;19952;-76
2022/11/10 14:12:21;;;;;;;;;;;16.30;94.90;;;;;;5049379;28;19909;-78
2022/11/10 14:15:00;;;;;;;;;;;16.40;94.30;;;;;;5047538;28;19917;-76
2022/11/10 14:17:39;;;;;;;;;;;16.20;97.10;;;;;;5047181;28;19912;-76
2022/11/10 14:20:26;;;;;;;;;;;15.70;95.40;;;;;;5049401;28;19909;-76
2022/11/10 14:22:52;;;;;;;;;;;15.20;96.10;;;;;;5048674;28;19927;-80
2022/11/10 14:25:35;;;;;;;;;;;14.80;97.70;;;;;;5044155;28;19913;-76
2022/11/10 14:28:19;;;;;;;;;;;14.60;98.80;;;;;;5042456;28;19928;-75
2022/11/10 14:30:51;;;;;;;;;;;14.60;99.50;;;;;;5041435;28;19923;-77
2022/11/10 14:33:17;;;;;;;;;;;14.50;99.70;;;;;;5047657;28;19920;-76
2022/11/10 14:35:47;;;;;;;;;;;14.50;99.70;;;;;;5048139;28;20331;-76
2022/11/10 14:38:15;;;;;;;;;;;14.40;99.90;;;;;;5047687;28;20008;-77
2022/11/10 14:40:41;;;;;;;;;;;14.30;99.90;;;;;;5041624;28;20406;-77